Time;durP1;ratioP1;P1;durP2;ratioP2;P2;SDS_P1;SDS_P2;PMS_P1;PMS_P2;Temp;Humidity;BMP_temperature;BMP_pressure;BME280_temperature;BME280_humidity;BME280_pressure;Samples;Min_cycle;Max_cycle;Signal;HPM_P1;HPM_P2
2021/01/12 00:00:30;;;;;;;;;;;4.10;98.70;;;;;;4315832;33;44440;-47
2021/01/12 00:02:58;;;;;;;;;;;4.10;98.70;;;;;;4315324;33;43412;-46
2021/01/12 00:05:25;;;;;;;;;;;4.10;98.80;;;;;;4303528;33;20006;-47
2021/01/12 00:07:55;;;;;;;;;;;4.10;98.70;;;;;;4316342;33;29719;-45
2021/01/12 00:10:22;;;;;;;;;;;4.10;98.80;;;;;;4315577;33;44619;-47
2021/01/12 00:12:51;;;;;;;;;;;4.20;98.80;;;;;;4303311;33;30682;-47
2021/01/12 00:15:20;;;;;;;;;;;4.20;98.80;;;;;;4318405;33;44205;-47
2021/01/12 00:17:51;;;;;;;;;;;4.20;98.80;;;;;;4305398;33;44511;-47
2021/01/12 00:20:21;;;;;;;;;;;4.20;98.80;;;;;;4319339;33;20024;-47
2021/01/12 00:22:51;;;;;;;;;;;4.20;98.80;;;;;;4318371;33;43580;-46
2021/01/12 00:25:20;;;;;;;;;;;4.20;98.80;;;;;;4293377;33;31505;-47
2021/01/12 00:27:55;;;;;;;;;;;4.20;98.80;;;;;;4318633;33;31593;-47
2021/01/12 00:30:26;;;;;;;;;;;4.20;98.80;;;;;;4318406;33;44333;-47
2021/01/12 00:32:56;;;;;;;;;;;4.20;98.80;;;;;;4305289;33;43421;-46
2021/01/12 00:35:28;;;;;;;;;;;4.20;98.80;;;;;;4305343;33;42379;-47
2021/01/12 00:37:57;;;;;;;;;;;4.20;98.80;;;;;;4305184;33;43509;-48
2021/01/12 00:40:27;;;;;;;;;;;4.20;98.80;;;;;;4305048;33;43452;-47
2021/01/12 00:42:57;;;;;;;;;;;4.20;98.80;;;;;;4305092;33;30602;-46
2021/01/12 00:45:25;;;;;;;;;;;4.20;98.80;;;;;;4305230;33;30417;-47
2021/01/12 00:47:52;;;;;;;;;;;4.30;98.90;;;;;;4318055;33;44325;-46
2021/01/12 00:50:23;;;;;;;;;;;4.20;98.90;;;;;;4318193;33;31238;-47
2021/01/12 00:52:51;;;;;;;;;;;4.20;98.90;;;;;;4305471;33;30724;-47
2021/01/12 00:55:23;;;;;;;;;;;4.20;98.90;;;;;;4317520;33;43555;-47
2021/01/12 00:57:52;;;;;;;;;;;4.20;98.90;;;;;;4305335;33;20010;-48
2021/01/12 01:00:22;;;;;;;;;;;4.30;98.90;;;;;;4305883;33;20414;-48
2021/01/12 01:02:49;;;;;;;;;;;4.30;98.90;;;;;;4317222;33;43303;-51
2021/01/12 01:05:18;;;;;;;;;;;4.30;98.90;;;;;;4317736;33;42207;-47
2021/01/12 01:07:48;;;;;;;;;;;4.20;98.90;;;;;;4317772;33;44357;-48
2021/01/12 01:10:15;;;;;;;;;;;4.20;98.90;;;;;;4304289;33;43080;-48
2021/01/12 01:12:45;;;;;;;;;;;4.30;99.00;;;;;;4317822;33;32571;-52
2021/01/12 01:15:12;;;;;;;;;;;4.30;99.00;;;;;;4317725;33;45747;-48
2021/01/12 01:17:41;;;;;;;;;;;4.30;99.00;;;;;;4317500;33;43274;-47
2021/01/12 01:20:08;;;;;;;;;;;4.30;99.00;;;;;;4304432;33;43394;-48
2021/01/12 01:22:41;;;;;;;;;;;4.30;99.00;;;;;;4304457;33;32131;-49
2021/01/12 01:25:08;;;;;;;;;;;4.30;99.00;;;;;;4292134;33;30723;-49
2021/01/12 01:27:36;;;;;;;;;;;4.30;99.00;;;;;;4318018;33;30037;-47
2021/01/12 01:30:03;;;;;;;;;;;4.30;99.00;;;;;;4317657;33;31001;-48
2021/01/12 01:32:30;;;;;;;;;;;4.30;99.10;;;;;;4317768;33;30575;-48
2021/01/12 01:34:57;;;;;;;;;;;4.30;99.10;;;;;;4316907;33;44182;-48
2021/01/12 01:37:24;;;;;;;;;;;4.30;99.10;;;;;;4317363;33;44467;-50
2021/01/12 01:39:54;;;;;;;;;;;4.30;99.10;;;;;;4303694;33;30169;-47
2021/01/12 01:42:20;;;;;;;;;;;4.30;99.10;;;;;;4316642;33;44616;-49
2021/01/12 01:44:47;;;;;;;;;;;4.30;99.10;;;;;;4315143;33;43413;-52
2021/01/12 01:47:14;;;;;;;;;;;4.30;99.20;;;;;;4317190;33;42907;-47
2021/01/12 01:49:44;;;;;;;;;;;4.30;99.20;;;;;;4317163;33;30846;-47
2021/01/12 01:52:11;;;;;;;;;;;4.40;99.20;;;;;;4316962;33;44374;-47
2021/01/12 01:54:38;;;;;;;;;;;4.40;99.20;;;;;;4317106;33;43151;-47
2021/01/12 01:57:08;;;;;;;;;;;4.30;99.20;;;;;;4317095;33;43284;-46
2021/01/12 01:59:35;;;;;;;;;;;4.40;99.20;;;;;;4292140;33;30778;-47
2021/01/12 02:02:02;;;;;;;;;;;4.40;99.20;;;;;;4316700;33;43346;-47
2021/01/12 02:04:39;;;;;;;;;;;4.40;99.20;;;;;;4316630;33;42651;-47
2021/01/12 02:07:08;;;;;;;;;;;4.40;99.20;;;;;;4316668;33;42173;-47
2021/01/12 02:09:38;;;;;;;;;;;4.40;99.20;;;;;;4304896;33;20073;-46
2021/01/12 02:12:12;;;;;;;;;;;4.40;99.20;;;;;;4291918;33;30295;-47
2021/01/12 02:14:39;;;;;;;;;;;4.40;99.30;;;;;;4303782;33;44369;-45
2021/01/12 02:17:09;;;;;;;;;;;4.40;99.20;;;;;;4316585;33;39679;-47
2021/01/12 02:19:37;;;;;;;;;;;4.40;99.30;;;;;;4291743;33;30460;-48
2021/01/12 02:22:05;;;;;;;;;;;4.40;99.30;;;;;;4303678;33;43434;-47
2021/01/12 02:24:37;;;;;;;;;;;4.40;99.30;;;;;;4317309;33;30752;-47
2021/01/12 02:27:05;;;;;;;;;;;4.40;99.30;;;;;;4303606;33;43382;-46
2021/01/12 02:29:33;;;;;;;;;;;4.50;99.30;;;;;;4291430;33;30663;-45
2021/01/12 02:32:00;;;;;;;;;;;4.50;99.30;;;;;;4317175;33;28653;-46
2021/01/12 02:34:30;;;;;;;;;;;4.50;99.30;;;;;;4316582;33;44590;-47
2021/01/12 02:36:59;;;;;;;;;;;4.50;99.30;;;;;;4291304;33;31229;-47
2021/01/12 02:39:30;;;;;;;;;;;4.50;99.40;;;;;;4316519;33;42116;-47
2021/01/12 02:42:00;;;;;;;;;;;4.50;99.40;;;;;;4303481;33;42465;-47
2021/01/12 02:44:28;;;;;;;;;;;4.50;99.40;;;;;;4303273;33;30525;-46
2021/01/12 02:46:55;;;;;;;;;;;4.50;99.40;;;;;;4316575;33;44204;-46
2021/01/12 02:49:28;;;;;;;;;;;4.50;99.40;;;;;;4316280;33;44312;-47
2021/01/12 02:51:55;;;;;;;;;;;4.50;99.40;;;;;;4291554;33;30721;-47
2021/01/12 02:54:22;;;;;;;;;;;4.50;99.30;;;;;;4316338;33;43524;-47
2021/01/12 02:56:48;;;;;;;;;;;4.50;99.30;;;;;;4316507;33;42978;-47
2021/01/12 02:59:15;;;;;;;;;;;4.50;99.30;;;;;;4303126;33;30725;-47
2021/01/12 03:01:42;;;;;;;;;;;4.50;99.30;;;;;;4302759;33;43088;-47
2021/01/12 03:04:09;;;;;;;;;;;4.50;99.40;;;;;;4303247;33;30533;-47
2021/01/12 03:06:35;;;;;;;;;;;4.60;99.40;;;;;;4316133;33;44051;-47
2021/01/12 03:09:02;;;;;;;;;;;4.60;99.40;;;;;;4316173;33;41976;-47
2021/01/12 03:11:29;;;;;;;;;;;4.60;99.40;;;;;;4316009;33;43273;-47
2021/01/12 03:13:57;;;;;;;;;;;4.60;99.40;;;;;;4316191;33;42220;-47
2021/01/12 03:16:27;;;;;;;;;;;4.60;99.50;;;;;;4316191;33;43493;-47
2021/01/12 03:18:54;;;;;;;;;;;4.60;99.40;;;;;;4291129;33;31707;-47
2021/01/12 03:21:20;;;;;;;;;;;4.60;99.50;;;;;;4316009;33;43155;-47
2021/01/12 03:23:47;;;;;;;;;;;4.60;99.50;;;;;;4302831;33;30209;-47
2021/01/12 03:26:18;;;;;;;;;;;4.60;99.40;;;;;;4316081;33;44146;-47
2021/01/12 03:28:45;;;;;;;;;;;4.60;99.50;;;;;;4315817;33;44486;-47
2021/01/12 03:31:15;;;;;;;;;;;4.60;99.50;;;;;;4316313;33;30091;-47
2021/01/12 03:33:42;;;;;;;;;;;4.60;99.50;;;;;;4291055;33;31037;-47
2021/01/12 03:36:09;;;;;;;;;;;4.60;99.60;;;;;;4315969;33;44348;-47
2021/01/12 03:38:35;;;;;;;;;;;4.60;99.50;;;;;;4315626;33;43267;-47
2021/01/12 03:41:05;;;;;;;;;;;4.70;99.60;;;;;;4316098;33;44068;-47
2021/01/12 03:43:32;;;;;;;;;;;4.70;99.60;;;;;;4316057;33;44450;-47
2021/01/12 03:45:59;;;;;;;;;;;4.70;99.60;;;;;;4316230;33;29731;-47
2021/01/12 03:48:31;;;;;;;;;;;4.70;99.70;;;;;;4317115;33;30437;-45
2021/01/12 03:50:59;;;;;;;;;;;4.70;99.80;;;;;;4305373;33;44344;-47
2021/01/12 03:53:27;;;;;;;;;;;4.70;99.70;;;;;;4318487;33;44459;-47
2021/01/12 03:55:56;;;;;;;;;;;4.70;99.70;;;;;;4305400;33;44249;-47
2021/01/12 03:58:24;;;;;;;;;;;4.80;99.70;;;;;;4318592;33;42167;-47
2021/01/12 04:00:50;;;;;;;;;;;4.70;99.70;;;;;;4318721;33;44093;-46
2021/01/12 04:03:19;;;;;;;;;;;4.80;99.70;;;;;;4318724;33;31448;-47
2021/01/12 04:05:46;;;;;;;;;;;4.80;99.70;;;;;;4318330;33;43479;-46
2021/01/12 04:08:13;;;;;;;;;;;4.80;99.70;;;;;;4318718;33;30872;-47
2021/01/12 04:10:40;;;;;;;;;;;4.80;99.70;;;;;;4318003;33;42923;-47
2021/01/12 04:13:09;;;;;;;;;;;4.80;99.70;;;;;;4318538;33;44342;-47
2021/01/12 04:15:36;;;;;;;;;;;4.80;99.80;;;;;;4318443;33;41358;-47
2021/01/12 04:18:05;;;;;;;;;;;4.80;99.70;;;;;;4318399;33;44353;-47
2021/01/12 04:20:32;;;;;;;;;;;4.80;99.70;;;;;;4318094;33;42441;-47
2021/01/12 04:22:59;;;;;;;;;;;4.80;99.70;;;;;;4318922;33;36711;-46
2021/01/12 04:25:28;;;;;;;;;;;4.80;99.70;;;;;;4319734;33;20002;-48
2021/01/12 04:27:57;;;;;;;;;;;4.80;99.70;;;;;;4318242;33;43472;-47
2021/01/12 04:30:24;;;;;;;;;;;4.80;99.70;;;;;;4318285;33;39655;-47
2021/01/12 04:32:51;;;;;;;;;;;4.90;99.80;;;;;;4304956;33;31811;-47
2021/01/12 04:35:17;;;;;;;;;;;4.80;99.70;;;;;;4318404;33;44165;-49
2021/01/12 04:37:47;;;;;;;;;;;4.90;99.80;;;;;;4304944;33;43318;-48
2021/01/12 04:40:14;;;;;;;;;;;4.90;99.60;;;;;;4317871;33;44436;-49
2021/01/12 04:42:44;;;;;;;;;;;4.90;99.60;;;;;;4318392;33;35435;-49
2021/01/12 04:45:11;;;;;;;;;;;4.90;99.60;;;;;;4306247;33;19994;-47
2021/01/12 04:47:38;;;;;;;;;;;4.90;99.60;;;;;;4317702;33;44479;-47
2021/01/12 04:50:06;;;;;;;;;;;4.90;99.50;;;;;;4292859;33;30566;-51
2021/01/12 04:52:46;;;;;;;;;;;4.90;99.90;;;;;;4318058;33;44098;-47
2021/01/12 04:55:14;;;;;;;;;;;4.90;99.60;;;;;;4317916;33;43691;-49
2021/01/12 04:57:41;;;;;;;;;;;4.90;99.60;;;;;;4317455;33;44675;-50
2021/01/12 05:00:32;;;;;;;;;;;4.90;99.50;;;;;;4317031;33;44499;-47
2021/01/12 05:02:59;;;;;;;;;;;4.90;99.60;;;;;;4317850;33;38288;-47
2021/01/12 05:05:27;;;;;;;;;;;4.90;99.60;;;;;;4318002;33;41355;-47
2021/01/12 05:08:01;;;;;;;;;;;4.90;99.70;;;;;;4292865;33;31726;-48
2021/01/12 05:10:34;;;;;;;;;;;4.90;99.70;;;;;;4304730;33;43251;-48
2021/01/12 05:13:06;;;;;;;;;;;4.90;99.70;;;;;;4317473;33;43165;-48
2021/01/12 05:15:40;;;;;;;;;;;4.90;99.70;;;;;;4305485;33;30928;-51
2021/01/12 05:18:08;;;;;;;;;;;4.90;99.70;;;;;;4304478;33;44283;-49
2021/01/12 05:20:45;;;;;;;;;;;5.00;99.70;;;;;;4317561;33;43336;-49
2021/01/12 05:23:21;;;;;;;;;;;4.90;99.70;;;;;;4304170;33;43284;-48
2021/01/12 05:25:49;;;;;;;;;;;4.90;99.70;;;;;;4317389;33;41996;-47
2021/01/12 05:28:17;;;;;;;;;;;4.90;99.70;;;;;;4317527;33;44590;-47
2021/01/12 05:30:52;;;;;;;;;;;5.00;99.70;;;;;;4304300;33;42485;-47
2021/01/12 05:33:20;;;;;;;;;;;5.00;99.70;;;;;;4318009;33;33014;-47
2021/01/12 05:35:47;;;;;;;;;;;5.00;99.70;;;;;;4317167;33;39066;-47
2021/01/12 05:38:41;;;;;;;;;;;5.00;99.80;;;;;;4317376;33;43472;-47
2021/01/12 05:41:11;;;;;;;;;;;5.00;99.90;;;;;;4315028;33;43365;-47
2021/01/12 05:43:41;;;;;;;;;;;5.00;99.80;;;;;;4317214;33;44574;-47
2021/01/12 05:46:15;;;;;;;;;;;5.00;99.90;;;;;;4317320;33;44365;-47
2021/01/12 05:48:45;;;;;;;;;;;5.00;99.90;;;;;;4305526;33;19994;-47
2021/01/12 05:51:14;;;;;;;;;;;5.10;99.90;;;;;;4304177;33;44420;-45
2021/01/12 05:53:54;;;;;;;;;;;5.00;99.90;;;;;;4317130;33;44245;-47
2021/01/12 05:56:24;;;;;;;;;;;5.00;99.90;;;;;;4304046;33;42271;-47
2021/01/12 05:58:52;;;;;;;;;;;5.10;99.90;;;;;;4304041;33;29270;-47
2021/01/12 06:01:22;;;;;;;;;;;5.10;99.90;;;;;;4291985;33;31341;-47
2021/01/12 06:03:54;;;;;;;;;;;5.10;99.90;;;;;;4316993;33;44405;-47
2021/01/12 06:06:20;;;;;;;;;;;5.10;99.90;;;;;;4316837;33;43433;-47
2021/01/12 06:08:51;;;;;;;;;;;5.10;99.90;;;;;;4316877;33;43073;-47
2021/01/12 06:11:18;;;;;;;;;;;5.10;99.90;;;;;;4304590;33;20369;-47
2021/01/12 06:14:03;;;;;;;;;;;5.10;99.90;;;;;;4316605;33;42928;-47
2021/01/12 06:16:33;;;;;;;;;;;5.10;99.90;;;;;;4303845;33;32306;-47
2021/01/12 06:19:10;;;;;;;;;;;5.10;99.90;;;;;;4316787;33;44330;-48
2021/01/12 06:21:55;;;;;;;;;;;5.10;99.90;;;;;;4318249;33;20104;-47
2021/01/12 06:24:31;;;;;;;;;;;5.20;99.90;;;;;;4317177;33;31577;-47
2021/01/12 06:27:01;;;;;;;;;;;5.20;99.90;;;;;;4316760;33;43568;-47
2021/01/12 06:29:30;;;;;;;;;;;5.20;99.90;;;;;;4303505;33;43652;-47
2021/01/12 06:31:57;;;;;;;;;;;5.20;99.90;;;;;;4316591;33;31768;-47
2021/01/12 06:34:27;;;;;;;;;;;5.20;99.90;;;;;;4316267;33;43044;-47
2021/01/12 06:36:55;;;;;;;;;;;5.20;99.90;;;;;;4303643;33;38024;-47
2021/01/12 06:39:41;;;;;;;;;;;5.20;99.90;;;;;;4316337;33;44361;-47
2021/01/12 06:42:09;;;;;;;;;;;5.20;99.90;;;;;;4316437;33;42361;-47
2021/01/12 06:44:42;;;;;;;;;;;5.20;99.80;;;;;;4316457;33;44728;-46
2021/01/12 06:47:09;;;;;;;;;;;5.20;99.90;;;;;;4316611;33;43086;-47
2021/01/12 06:49:41;;;;;;;;;;;5.20;99.90;;;;;;4303451;33;30960;-47
2021/01/12 06:52:09;;;;;;;;;;;5.20;99.90;;;;;;4317729;33;20044;-47
2021/01/12 06:54:44;;;;;;;;;;;5.20;99.90;;;;;;4291451;33;30405;-47
2021/01/12 06:57:23;;;;;;;;;;;5.20;99.90;;;;;;4316147;33;42954;-47
2021/01/12 06:59:54;;;;;;;;;;;5.20;99.90;;;;;;4316299;33;43181;-47
2021/01/12 07:02:20;;;;;;;;;;;5.20;99.90;;;;;;4315611;33;44475;-46
2021/01/12 07:05:06;;;;;;;;;;;5.20;99.90;;;;;;4303265;33;32583;-47
2021/01/12 07:07:35;;;;;;;;;;;5.30;99.90;;;;;;4316279;33;29628;-47
2021/01/12 07:10:09;;;;;;;;;;;5.30;99.90;;;;;;4316134;33;44475;-47
2021/01/12 07:12:37;;;;;;;;;;;5.30;99.90;;;;;;4316537;33;31439;-47
2021/01/12 07:15:10;;;;;;;;;;;5.30;99.90;;;;;;4316177;33;43290;-47
2021/01/12 07:17:45;;;;;;;;;;;5.30;99.90;;;;;;4303304;33;31388;-46
2021/01/12 07:20:22;;;;;;;;;;;5.30;99.90;;;;;;4316189;33;44720;-45
2021/01/12 07:23:15;;;;;;;;;;;5.30;99.90;;;;;;4315451;33;44571;-47
2021/01/12 07:25:46;;;;;;;;;;;5.30;99.90;;;;;;4301161;33;33140;-47
2021/01/12 07:28:22;;;;;;;;;;;5.30;99.90;;;;;;4291168;33;33104;-45
2021/01/12 07:30:52;;;;;;;;;;;5.30;99.90;;;;;;4315710;33;42335;-47
2021/01/12 07:33:21;;;;;;;;;;;5.30;99.90;;;;;;4316150;33;30792;-47
2021/01/12 07:35:54;;;;;;;;;;;5.30;99.90;;;;;;4315800;33;43465;-45
2021/01/12 07:38:28;;;;;;;;;;;5.30;99.90;;;;;;4291149;33;30658;-47
2021/01/12 07:40:56;;;;;;;;;;;5.30;99.90;;;;;;4302968;33;43684;-47
2021/01/12 07:43:23;;;;;;;;;;;5.30;99.90;;;;;;4315645;33;44333;-47
2021/01/12 07:45:54;;;;;;;;;;;5.40;99.90;;;;;;4303126;33;43167;-47
2021/01/12 07:48:25;;;;;;;;;;;5.30;99.90;;;;;;4302696;33;44587;-47
2021/01/12 07:50:53;;;;;;;;;;;5.40;99.90;;;;;;4302839;33;31400;-47
2021/01/12 07:53:22;;;;;;;;;;;5.40;99.90;;;;;;4302422;33;43201;-46
2021/01/12 07:55:52;;;;;;;;;;;5.40;99.90;;;;;;4315548;33;43709;-47
2021/01/12 07:58:22;;;;;;;;;;;5.40;99.90;;;;;;4304216;33;20453;-47
2021/01/12 08:00:49;;;;;;;;;;;5.40;99.90;;;;;;4315767;33;41869;-49
2021/01/12 08:03:41;;;;;;;;;;;5.40;99.90;;;;;;4315809;33;31785;-45
2021/01/12 08:06:08;;;;;;;;;;;5.40;99.90;;;;;;4315847;33;43290;-48
2021/01/12 08:08:34;;;;;;;;;;;5.40;99.90;;;;;;4302851;33;32529;-47
2021/01/12 08:11:06;;;;;;;;;;;5.40;99.90;;;;;;4315940;33;32096;-48
2021/01/12 08:13:33;;;;;;;;;;;5.40;99.90;;;;;;4302831;33;29417;-48
2021/01/12 08:16:07;;;;;;;;;;;5.40;99.90;;;;;;4302752;33;32776;-48
2021/01/12 08:18:34;;;;;;;;;;;5.40;99.90;;;;;;4302753;33;30221;-46
2021/01/12 08:21:05;;;;;;;;;;;5.40;99.90;;;;;;4315763;33;43295;-48
2021/01/12 08:23:35;;;;;;;;;;;5.40;99.90;;;;;;4316163;33;29730;-47
2021/01/12 08:26:11;;;;;;;;;;;5.40;99.90;;;;;;4316143;33;30420;-49
2021/01/12 08:28:44;;;;;;;;;;;5.40;99.90;;;;;;4302838;33;31836;-47
2021/01/12 08:31:17;;;;;;;;;;;5.40;99.90;;;;;;4302341;33;30815;-47
2021/01/12 08:33:45;;;;;;;;;;;5.40;99.90;;;;;;4315670;33;44217;-47
2021/01/12 08:36:19;;;;;;;;;;;5.40;99.90;;;;;;4318234;33;20374;-48
2021/01/12 08:38:49;;;;;;;;;;;5.40;99.90;;;;;;4318752;33;30572;-47
2021/01/12 08:41:17;;;;;;;;;;;5.40;99.90;;;;;;4305414;33;30758;-49
2021/01/12 08:43:47;;;;;;;;;;;5.40;99.90;;;;;;4304757;33;43632;-49
2021/01/12 08:46:19;;;;;;;;;;;5.40;99.90;;;;;;4293024;33;31775;-48
2021/01/12 08:48:51;;;;;;;;;;;5.40;99.90;;;;;;4319383;33;20002;-50
2021/01/12 08:51:19;;;;;;;;;;;5.40;99.90;;;;;;4304785;33;43529;-47
2021/01/12 08:53:46;;;;;;;;;;;5.50;99.90;;;;;;4304966;33;30819;-47
2021/01/12 08:56:14;;;;;;;;;;;5.40;99.90;;;;;;4318391;33;37541;-47
2021/01/12 08:58:42;;;;;;;;;;;5.40;99.90;;;;;;4318340;33;29718;-47
2021/01/12 09:01:11;;;;;;;;;;;5.50;99.90;;;;;;4293113;33;29973;-47
2021/01/12 09:03:42;;;;;;;;;;;5.50;99.90;;;;;;4292784;33;30630;-47
2021/01/12 09:06:22;;;;;;;;;;;5.50;99.90;;;;;;4317793;33;42914;-47
2021/01/12 09:08:50;;;;;;;;;;;5.50;99.90;;;;;;4304804;33;44330;-47
2021/01/12 09:11:17;;;;;;;;;;;5.50;99.90;;;;;;4318262;33;30724;-47
2021/01/12 09:13:49;;;;;;;;;;;5.50;99.90;;;;;;4317609;33;43121;-47
2021/01/12 09:16:19;;;;;;;;;;;5.50;99.90;;;;;;4318888;33;20037;-47
2021/01/12 09:18:46;;;;;;;;;;;5.50;99.90;;;;;;4318679;33;20041;-48
2021/01/12 09:21:22;;;;;;;;;;;5.50;99.90;;;;;;4317584;33;44309;-47
2021/01/12 09:23:52;;;;;;;;;;;5.50;99.90;;;;;;4318218;33;29815;-47
2021/01/12 09:26:22;;;;;;;;;;;5.50;99.90;;;;;;4317741;33;29832;-48
2021/01/12 09:28:55;;;;;;;;;;;5.50;99.90;;;;;;4304421;33;29667;-47
2021/01/12 09:31:28;;;;;;;;;;;5.50;99.90;;;;;;4305477;33;20348;-47
2021/01/12 09:33:55;;;;;;;;;;;5.50;99.90;;;;;;4292348;33;30874;-47
2021/01/12 09:36:31;;;;;;;;;;;5.50;99.90;;;;;;4304889;33;30581;-47
2021/01/12 09:39:02;;;;;;;;;;;5.60;99.90;;;;;;4317207;33;42414;-47
2021/01/12 09:41:32;;;;;;;;;;;5.50;99.90;;;;;;4317317;33;40894;-47
2021/01/12 09:44:02;;;;;;;;;;;5.60;99.90;;;;;;4317728;33;31452;-47
2021/01/12 09:46:38;;;;;;;;;;;5.60;99.90;;;;;;4316968;33;29983;-48
2021/01/12 09:49:11;;;;;;;;;;;5.60;99.90;;;;;;4304951;33;31372;-47
2021/01/12 09:51:40;;;;;;;;;;;5.60;99.90;;;;;;4303938;33;42921;-47
2021/01/12 09:54:08;;;;;;;;;;;5.60;99.90;;;;;;4317088;33;43327;-47
2021/01/12 09:56:40;;;;;;;;;;;5.60;99.90;;;;;;4317096;33;43524;-47
2021/01/12 09:59:10;;;;;;;;;;;5.60;99.90;;;;;;4303790;33;43300;-48
2021/01/12 10:01:39;;;;;;;;;;;5.60;99.90;;;;;;4316669;33;39182;-47
2021/01/12 10:04:09;;;;;;;;;;;5.60;99.90;;;;;;4317515;33;25081;-47
2021/01/12 10:06:56;;;;;;;;;;;5.60;99.90;;;;;;4317076;33;44323;-47
2021/01/12 10:09:29;;;;;;;;;;;5.60;99.90;;;;;;4317643;33;29991;-47
2021/01/12 10:11:56;;;;;;;;;;;5.60;99.90;;;;;;4291776;33;31425;-47
2021/01/12 10:14:29;;;;;;;;;;;5.60;99.90;;;;;;4303750;33;30502;-48
2021/01/12 10:16:56;;;;;;;;;;;5.60;99.90;;;;;;4317021;33;40618;-47
2021/01/12 10:19:26;;;;;;;;;;;5.60;99.90;;;;;;4316946;33;39348;-48
2021/01/12 10:22:05;;;;;;;;;;;5.60;99.90;;;;;;4304075;33;30888;-48
2021/01/12 10:24:37;;;;;;;;;;;5.60;99.90;;;;;;4303550;33;33382;-47
2021/01/12 10:27:04;;;;;;;;;;;5.60;99.90;;;;;;4316675;33;44125;-47
2021/01/12 10:29:36;;;;;;;;;;;5.60;99.90;;;;;;4317384;33;20424;-47
2021/01/12 10:32:07;;;;;;;;;;;5.60;99.90;;;;;;4303845;33;31036;-47
2021/01/12 10:34:34;;;;;;;;;;;5.60;99.90;;;;;;4291610;33;30805;-47
2021/01/12 10:37:01;;;;;;;;;;;5.60;99.90;;;;;;4316234;33;43528;-47
2021/01/12 10:39:35;;;;;;;;;;;5.60;99.90;;;;;;4316340;33;43167;-47
2021/01/12 10:42:08;;;;;;;;;;;5.60;99.90;;;;;;4291398;33;43668;-47
2021/01/12 10:44:43;;;;;;;;;;;5.60;99.90;;;;;;4303854;33;30418;-47
2021/01/12 10:47:13;;;;;;;;;;;5.60;99.90;;;;;;4303175;33;42777;-47
2021/01/12 10:49:40;;;;;;;;;;;5.60;99.90;;;;;;4291758;33;32790;-47
2021/01/12 10:52:15;;;;;;;;;;;5.60;99.90;;;;;;4316174;33;44373;-47
2021/01/12 10:54:46;;;;;;;;;;;5.60;99.90;;;;;;4303384;33;43143;-47
2021/01/12 10:57:13;;;;;;;;;;;5.60;99.90;;;;;;4303197;33;42904;-47
2021/01/12 10:59:40;;;;;;;;;;;5.60;99.90;;;;;;4315644;33;42152;-47
2021/01/12 11:02:12;;;;;;;;;;;5.60;99.90;;;;;;4316169;33;28960;-47
2021/01/12 11:04:39;;;;;;;;;;;5.60;99.90;;;;;;4303334;33;30956;-47
2021/01/12 11:07:12;;;;;;;;;;;5.60;99.90;;;;;;4316093;33;44606;-47
2021/01/12 11:09:40;;;;;;;;;;;5.60;99.90;;;;;;4316628;33;31553;-47
2021/01/12 11:12:10;;;;;;;;;;;5.60;99.90;;;;;;4315752;33;43413;-48
2021/01/12 11:14:46;;;;;;;;;;;5.60;99.90;;;;;;4291095;33;31769;-47
2021/01/12 11:17:18;;;;;;;;;;;5.60;99.90;;;;;;4304052;33;20006;-47
2021/01/12 11:19:51;;;;;;;;;;;5.60;99.90;;;;;;4315164;33;32078;-48
2021/01/12 11:22:26;;;;;;;;;;;5.60;99.90;;;;;;4327107;33;43999;-48
2021/01/12 11:25:01;;;;;;;;;;;5.60;99.90;;;;;;4327602;33;44266;-48
2021/01/12 11:27:29;;;;;;;;;;;5.60;99.90;;;;;;4316038;33;43566;-48
2021/01/12 11:29:58;;;;;;;;;;;5.60;99.90;;;;;;4315986;33;42621;-51
2021/01/12 11:32:36;;;;;;;;;;;5.60;99.90;;;;;;4315962;33;41873;-48
2021/01/12 11:35:03;;;;;;;;;;;5.60;99.90;;;;;;4316464;33;31806;-48
2021/01/12 11:37:35;;;;;;;;;;;5.60;99.90;;;;;;4316027;33;30844;-48
2021/01/12 11:40:06;;;;;;;;;;;5.60;99.90;;;;;;4303065;33;43616;-48
2021/01/12 11:42:35;;;;;;;;;;;5.60;99.90;;;;;;4303156;33;31709;-48
2021/01/12 11:45:07;;;;;;;;;;;5.60;99.90;;;;;;4316101;33;39468;-48
2021/01/12 11:47:37;;;;;;;;;;;5.60;99.90;;;;;;4290741;33;32092;-47
2021/01/12 11:50:08;;;;;;;;;;;5.60;99.90;;;;;;4315643;33;44351;-47
2021/01/12 11:52:41;;;;;;;;;;;5.60;99.90;;;;;;4327942;33;20398;-48
2021/01/12 11:55:11;;;;;;;;;;;5.60;99.90;;;;;;4316078;33;44543;-49
2021/01/12 11:57:41;;;;;;;;;;;5.60;99.90;;;;;;4303258;33;29769;-48
2021/01/12 12:00:16;;;;;;;;;;;5.60;99.90;;;;;;4301887;33;44550;-49
2021/01/12 12:02:51;;;;;;;;;;;5.60;99.90;;;;;;4326675;33;31758;-50
2021/01/12 12:05:18;;;;;;;;;;;5.60;99.90;;;;;;4314914;33;41280;-51
2021/01/12 12:07:51;;;;;;;;;;;5.70;99.90;;;;;;4315870;33;43592;-50
2021/01/12 12:10:24;;;;;;;;;;;5.70;99.90;;;;;;4316762;33;30573;-47
2021/01/12 12:12:56;;;;;;;;;;;5.70;99.90;;;;;;4305627;33;43138;-47
2021/01/12 12:15:29;;;;;;;;;;;5.70;99.90;;;;;;4330031;33;29738;-47
2021/01/12 12:18:00;;;;;;;;;;;5.70;99.90;;;;;;4305648;33;42794;-47
2021/01/12 12:20:30;;;;;;;;;;;5.60;99.90;;;;;;4329621;33;43788;-47
2021/01/12 12:22:57;;;;;;;;;;;5.60;99.90;;;;;;4319687;33;19998;-47
2021/01/12 12:25:24;;;;;;;;;;;5.60;99.90;;;;;;4305225;33;33281;-47
2021/01/12 12:27:54;;;;;;;;;;;5.60;99.90;;;;;;4318416;33;42838;-47
2021/01/12 12:30:24;;;;;;;;;;;5.70;99.90;;;;;;4318271;33;44106;-47
2021/01/12 12:32:54;;;;;;;;;;;5.60;99.90;;;;;;4317340;33;30455;-47
2021/01/12 12:35:24;;;;;;;;;;;5.60;99.90;;;;;;4329217;33;42110;-47
2021/01/12 12:37:51;;;;;;;;;;;5.60;99.90;;;;;;4329234;33;31992;-47
2021/01/12 12:40:20;;;;;;;;;;;5.60;99.90;;;;;;4317919;33;44958;-47
2021/01/12 12:42:47;;;;;;;;;;;5.60;99.90;;;;;;4329246;33;44586;-47
2021/01/12 12:45:14;;;;;;;;;;;5.60;99.90;;;;;;4318001;33;43375;-47
2021/01/12 12:47:44;;;;;;;;;;;5.60;99.90;;;;;;4318043;33;44910;-47
2021/01/12 12:50:11;;;;;;;;;;;5.60;99.90;;;;;;4318042;33;44322;-47
2021/01/12 12:52:40;;;;;;;;;;;5.60;99.90;;;;;;4317930;33;30416;-47
2021/01/12 12:55:07;;;;;;;;;;;5.60;99.90;;;;;;4329489;33;30773;-47
2021/01/12 12:57:40;;;;;;;;;;;5.60;99.90;;;;;;4317801;33;44602;-47
2021/01/12 13:00:11;;;;;;;;;;;5.60;99.90;;;;;;4329593;33;29731;-47
2021/01/12 13:02:40;;;;;;;;;;;5.60;99.80;;;;;;4316508;33;31503;-47
2021/01/12 13:05:08;;;;;;;;;;;5.60;99.90;;;;;;4328874;33;32321;-47
2021/01/12 13:07:35;;;;;;;;;;;5.60;99.90;;;;;;4317568;33;43168;-47
2021/01/12 13:10:03;;;;;;;;;;;5.60;99.80;;;;;;4328957;33;29687;-47
2021/01/12 13:12:36;;;;;;;;;;;5.60;99.70;;;;;;4317659;33;41708;-47
2021/01/12 13:15:03;;;;;;;;;;;5.60;99.70;;;;;;4317653;33;43888;-47
2021/01/12 13:17:32;;;;;;;;;;;5.60;99.60;;;;;;4317711;33;44019;-47
2021/01/12 13:20:03;;;;;;;;;;;5.60;99.60;;;;;;4317775;33;31190;-47
2021/01/12 13:22:29;;;;;;;;;;;5.60;99.60;;;;;;4317222;33;43258;-47
2021/01/12 13:24:59;;;;;;;;;;;5.60;99.60;;;;;;4317641;33;44185;-47
2021/01/12 13:27:27;;;;;;;;;;;5.60;99.50;;;;;;4304604;33;32113;-47
2021/01/12 13:29:54;;;;;;;;;;;5.60;99.50;;;;;;4318181;33;20002;-47
2021/01/12 13:32:21;;;;;;;;;;;5.60;99.50;;;;;;4317108;33;43025;-47
2021/01/12 13:34:52;;;;;;;;;;;5.60;99.50;;;;;;4328658;33;43867;-47
2021/01/12 13:37:19;;;;;;;;;;;5.60;99.50;;;;;;4304201;33;42382;-47
2021/01/12 13:39:48;;;;;;;;;;;5.60;99.50;;;;;;4317300;33;42355;-47
2021/01/12 13:42:15;;;;;;;;;;;5.60;99.50;;;;;;4317744;33;29898;-47
2021/01/12 13:44:43;;;;;;;;;;;5.60;99.40;;;;;;4328312;33;31781;-47
2021/01/12 13:47:09;;;;;;;;;;;5.60;99.50;;;;;;4317025;33;42830;-47
2021/01/12 13:49:36;;;;;;;;;;;5.60;99.50;;;;;;4317082;33;43298;-47
2021/01/12 13:52:08;;;;;;;;;;;5.60;99.50;;;;;;4317664;33;30375;-47
2021/01/12 13:54:38;;;;;;;;;;;5.60;99.50;;;;;;4304087;33;42931;-47
2021/01/12 13:57:11;;;;;;;;;;;5.60;99.50;;;;;;4328029;33;43536;-47
2021/01/12 13:59:46;;;;;;;;;;;5.60;99.40;;;;;;4304121;33;41966;-47
2021/01/12 14:02:15;;;;;;;;;;;5.60;99.50;;;;;;4328134;33;32425;-47
2021/01/12 14:04:42;;;;;;;;;;;5.60;99.50;;;;;;4328376;33;31001;-48
2021/01/12 14:07:09;;;;;;;;;;;5.60;99.60;;;;;;4316982;33;44197;-47
2021/01/12 14:09:39;;;;;;;;;;;5.60;99.50;;;;;;4318223;33;20045;-47
2021/01/12 14:12:06;;;;;;;;;;;5.60;99.40;;;;;;4316909;33;43111;-47
2021/01/12 14:14:32;;;;;;;;;;;5.60;99.40;;;;;;4315645;33;43468;-48
2021/01/12 14:17:02;;;;;;;;;;;5.60;99.40;;;;;;4316893;33;30956;-47
2021/01/12 14:19:29;;;;;;;;;;;5.60;99.70;;;;;;4316656;33;44780;-47
2021/01/12 14:21:58;;;;;;;;;;;5.60;99.30;;;;;;4303173;33;42123;-47
2021/01/12 14:24:25;;;;;;;;;;;5.60;99.30;;;;;;4303270;33;44190;-47
2021/01/12 14:26:53;;;;;;;;;;;5.60;99.30;;;;;;4316135;33;42025;-48
2021/01/12 14:29:20;;;;;;;;;;;5.60;99.40;;;;;;4303495;33;42044;-49
2021/01/12 14:31:51;;;;;;;;;;;5.60;99.30;;;;;;4316586;33;43159;-47
2021/01/12 14:34:18;;;;;;;;;;;5.60;99.30;;;;;;4316650;33;42862;-48
2021/01/12 14:36:47;;;;;;;;;;;5.50;99.30;;;;;;4316404;33;42830;-50
2021/01/12 14:39:24;;;;;;;;;;;5.50;99.30;;;;;;4316476;33;42120;-48
2021/01/12 14:41:55;;;;;;;;;;;5.60;99.30;;;;;;4303533;33;29980;-48
2021/01/12 14:44:24;;;;;;;;;;;5.50;99.30;;;;;;4302936;33;32800;-47
2021/01/12 14:46:51;;;;;;;;;;;5.60;99.30;;;;;;4303134;33;42248;-48